Latest Weather Observations for Yeppoon

IDQ60801

Issued at 10:02 pm EST Saturday 24 June 2017 (issued every 30 minutes, with the page automatically refreshed every 10 minutes)

About weather observations | Map of weather stations | Latest weather observations for QLD | Other Formats
Station Details ID: 033294 Name: YEPPOON THE ESPLANADE Lat: -23.14 Lon: 150.75 Height: 5.5 m
Data from the previous 72 hours. | See also: Recent months at Yeppoon
Date/Time
EST
Temp
°C
App
Temp
°C
Dew
Point
°C
Rel
Hum
%
Delta-T
°C
Wind Press
QNH
hPa
Press
MSL
hPa
Rain since
9am
mm
Dir  Spd
km/h
Gust
km/h
Spd
kts
Gust
kts
24/10:00pm 14.7 12.6 11.3 80 1.8 WNW 13 17 7 9 1018.8 1018.8 0.0
24/09:30pm 14.7 13.2 11.8 83 1.6 NW 11 13 6 7 1018.8 1018.8 0.0
24/09:00pm 14.7 14.0 12.0 84 1.5 N 7 9 4 5 1018.7 1018.7 0.0
24/08:30pm 15.0 14.4 12.3 84 1.5 N 7 9 4 5 1018.6 1018.6 0.0
24/08:00pm 15.2 14.7 12.2 82 1.6 N 6 9 3 5 1018.3 1018.3 0.0
24/07:30pm 16.1 15.6 12.1 77 2.2 N 6 7 3 4 1017.9 1017.9 0.0
24/07:00pm 18.0 17.9 12.0 68 3.3 N 4 11 2 6 1017.6 1017.6 0.0
24/06:30pm 20.1 18.6 13.1 64 4.0 N 13 15 7 8 1017.4 1017.4 0.0
24/06:00pm 20.4 18.8 12.9 62 4.2 N 13 17 7 9 1017.2 1017.2 0.0
24/05:30pm 20.4 18.8 12.9 62 4.3 N 13 15 7 8 1016.9 1016.9 0.0
24/05:00pm 21.2 19.8 13.4 61 4.5 N 13 15 7 8 1016.8 1016.8 0.0
24/04:30pm 21.7 20.4 14.8 65 4.1 N 15 17 8 9 1016.5 1016.5 0.0
24/04:00pm 21.8 19.8 13.9 61 4.6 NNE 17 20 9 11 1016.4 1016.4 0.0
24/03:30pm 22.1 20.2 14.2 61 4.6 NNE 17 19 9 10 1016.4 1016.4 0.0
24/03:00pm 22.5 21.0 15.4 64 4.2 NNE 17 19 9 10 1016.5 1016.5 0.0
24/02:30pm 22.7 21.4 14.8 61 4.7 NNE 15 19 8 10 1016.4 1016.4 0.0
24/02:00pm 22.6 21.6 14.7 61 4.7 NE 13 15 7 8 1016.6 1016.6 0.0
24/01:30pm 22.6 22.3 16.4 68 3.8 NE 13 17 7 9 1016.8 1016.8 0.0
24/01:00pm 22.0 21.2 16.1 69 3.6 ENE 15 17 8 9 1017.2 1017.2 0.0
24/12:30pm 22.2 21.9 16.5 70 3.5 ENE 13 17 7 9 1017.7 1017.7 0.0
24/12:00pm 21.6 21.9 15.9 70 3.4 NE 9 15 5 8 1018.2 1018.2 0.0
24/11:30am 21.6 21.8 15.7 69 3.5 N 9 13 5 7 1018.6 1018.6 0.0
24/11:00am 21.4 21.1 15.5 69 3.5 W 11 13 6 7 1019.0 1019.0 0.0
24/10:30am 21.8 22.1 14.4 63 4.3 W 6 9 3 5 1019.3 1019.3 0.0
24/10:00am 21.7 21.3 13.1 58 4.9 W 7 9 4 5 1019.6 1019.6 0.0
24/09:30am 19.6 19.6 14.2 71 3.1 W 7 9 4 5 1019.7 1019.7 0.0
24/09:00am 17.6 17.3 14.5 82 1.8 W 9 13 5 7 1019.8 1019.8 0.0
24/08:30am 15.7 14.9 14.1 90 0.9 W 11 15 6 8 1019.6 1019.6 0.0
24/08:00am 13.8 12.9 12.7 93 0.6 W 9 15 5 8 1019.4 1019.4 0.0
24/07:30am 11.8 10.8 10.9 94 0.5 W 7 11 4 6 1019.1 1019.1 0.0
24/07:00am 11.2 9.2 10.3 94 0.5 W 11 13 6 7 1018.9 1018.9 0.0
24/06:30am 11.3 9.0 10.4 94 0.5 WNW 13 15 7 8 1018.5 1018.5 0.0
24/06:00am 12.1 10.4 11.2 94 0.5 WNW 11 13 6 7 1018.3 1018.3 0.0
24/05:30am 12.4 11.2 11.5 94 0.5 WNW 9 13 5 7 1018.1 1018.1 0.0
24/05:00am 12.9 11.4 12.0 94 0.5 WNW 11 13 6 7 1017.9 1017.9 0.0
24/04:30am 12.5 10.5 11.6 94 0.5 WNW 13 17 7 9 1018.1 1018.1 0.0
24/04:00am 12.7 11.9 11.6 93 0.6 WNW 7 9 4 5 1018.0 1018.0 0.0
24/03:30am 12.9 11.0 11.8 93 0.6 WNW 13 15 7 8 1018.1 1018.1 0.0
24/03:00am 13.5 11.5 12.6 94 0.5 WNW 15 17 8 9 1018.4 1018.4 0.0
24/02:30am 12.9 11.0 11.8 93 0.6 WNW 13 15 7 8 1018.2 1018.2 0.0
24/02:00am 12.8 10.9 11.7 93 0.6 WNW 13 15 7 8 1018.2 1018.2 0.0
24/01:30am 13.2 12.5 12.1 93 0.6 WNW 7 11 4 6 1018.6 1018.6 0.0
24/01:00am 13.3 11.5 12.2 93 0.6 WNW 13 15 7 8 1018.8 1018.8 0.0
24/12:30am 13.6 11.9 12.3 92 0.7 WNW 13 15 7 8 1019.1 1019.1 0.0
24/12:00am 13.8 12.1 12.5 92 0.7 WNW 13 15 7 8 1019.4 1019.4 0.0
 
Date/Time
EST
Temp
°C
App
Temp
°C
Dew
Point
°C
Rel
Hum
%
Delta-T
°C
Wind Press
QNH
hPa
Press
MSL
hPa
Rain since
9am
mm
Dir  Spd
km/h
Gust
km/h
Spd
kts
Gust
kts
23/11:30pm 14.1 12.5 12.7 91 0.8 WNW 13 15 7 8 1019.6 1019.6 0.0
23/11:00pm 14.6 14.4 13.0 90 0.9 ENE 6 9 3 5 1019.8 1019.8 0.0
23/10:30pm 15.1 14.5 13.5 90 0.9 ENE 9 13 5 7 1020.1 1020.1 0.0
23/10:00pm 15.2 15.1 13.2 88 1.1 E 6 7 3 4 1020.4 1020.4 0.0
23/09:30pm 15.9 15.4 13.9 88 1.1 E 9 11 5 6 1020.4 1020.4 0.0
23/09:00pm 16.2 16.2 13.7 85 1.4 E 6 7 3 4 1020.4 1020.4 0.0
23/08:30pm 17.3 17.3 14.2 82 1.8 E 7 11 4 6 1020.3 1020.3 0.0
23/08:00pm 17.9 18.3 13.6 76 2.4 E 4 11 2 6 1020.1 1020.1 0.0
23/07:30pm 20.9 19.6 15.9 73 3.0 E 17 20 9 11 1019.9 1019.9 0.0
23/07:00pm 20.9 19.4 15.2 70 3.4 E 17 20 9 11 1019.6 1019.6 0.0
23/06:30pm 21.0 19.4 15.1 69 3.5 ENE 17 20 9 11 1019.3 1019.3 0.0
23/06:00pm 21.0 19.1 15.3 70 3.4 ENE 19 20 10 11 1019.0 1019.0 0.0
23/05:30pm 20.9 19.7 15.0 69 3.5 ENE 15 19 8 10 1018.7 1018.7 0.0
23/05:00pm 21.1 19.9 15.0 68 3.6 E 15 20 8 11 1018.5 1018.5 0.0
23/04:30pm 21.5 20.1 14.6 65 4.0 ESE 15 19 8 10 1018.3 1018.3 0.0
23/04:00pm 21.8 20.3 14.2 62 4.4 ESE 15 20 8 11 1018.2 1018.2 0.0
23/03:30pm 22.4 20.3 13.7 58 5.0 ESE 17 20 9 11 1018.0 1018.0 0.0
23/03:00pm 22.2 20.5 14.8 63 4.4 E 17 20 9 11 1018.1 1018.1 0.0
23/02:30pm 22.5 20.2 14.1 59 4.9 E 19 22 10 12 1018.5 1018.5 0.0
23/02:00pm 22.5 20.0 14.1 59 4.9 E 20 24 11 13 1018.7 1018.7 0.0
23/01:30pm 23.8 21.8 12.8 50 6.3 ESE 15 20 8 11 1018.9 1018.9 0.0
23/01:00pm 22.9 20.3 11.9 50 6.2 SE 17 24 9 13 1019.4 1019.4 0.0
23/12:30pm 22.9 19.6 11.0 47 6.6 SE 19 26 10 14 1019.9 1019.9 0.0
23/12:00pm 22.5 19.2 10.9 48 6.4 SE 19 24 10 13 1020.6 1020.6 0.0
23/11:30am 22.3 20.1 12.0 52 5.8 SSE 15 24 8 13 1021.2 1021.2 0.0
23/11:00am 21.9 19.6 11.9 53 5.6 SSE 15 24 8 13 1021.7 1021.7 0.0
23/10:30am 21.5 20.2 12.6 57 5.0 S 11 20 6 11 1022.0 1022.0 0.0
23/10:00am 20.7 19.1 12.9 61 4.4 SSE 13 24 7 13 1022.2 1022.2 0.0
23/09:30am 20.1 19.2 13.8 67 3.6 SSE 11 17 6 9 1022.3 1022.3 0.0
23/09:00am 19.1 17.9 14.1 73 2.9 S 13 17 7 9 1022.2 1022.2 0.0
23/08:30am 18.7 18.0 14.2 75 2.6 SSW 11 15 6 8 1022.2 1022.2 0.0
23/08:00am 18.0 17.5 13.9 77 2.3 SSW 9 15 5 8 1021.9 1021.9 0.0
23/07:30am 17.6 17.4 13.7 78 2.2 SSW 7 13 4 7 1021.6 1021.6 0.0
23/07:00am 17.2 17.0 13.7 80 2.0 SSW 7 13 4 7 1021.3 1021.3 0.0
23/06:30am 17.2 15.8 13.5 79 2.1 SSW 13 19 7 10 1021.1 1021.1 0.0
23/06:00am 17.3 16.0 13.6 79 2.1 SSW 13 17 7 9 1020.9 1020.9 0.0
23/05:30am 17.4 16.5 13.7 79 2.1 SSW 11 20 6 11 1020.8 1020.8 0.0
23/05:00am 17.2 16.0 14.1 82 1.8 SSW 13 20 7 11 1020.6 1020.6 0.0
23/04:30am 17.2 16.6 14.7 85 1.4 SSW 11 19 6 10 1020.6 1020.6 0.0
23/04:00am 17.2 15.9 14.8 86 1.4 SSW 15 20 8 11 1020.6 1020.6 0.0
23/03:30am 17.3 16.9 15.3 88 1.2 SSW 11 17 6 9 1020.7 1020.7 0.0
23/03:00am 16.8 16.3 15.0 89 1.0 SSW 11 15 6 8 1020.6 1020.6 0.0
23/02:30am 17.4 17.5 15.4 88 1.2 SSW 9 13 5 7 1020.9 1020.9 0.0
23/02:00am 17.5 18.1 15.7 89 1.1 SSW 7 11 4 6 1021.1 1021.1 0.0
23/01:30am 17.2 16.9 15.5 90 1.0 SSW 11 17 6 9 1021.1 1021.1 0.0
23/01:00am 17.5 17.6 15.5 88 1.2 SSW 9 11 5 6 1021.4 1021.4 0.0
23/12:30am 18.1 18.3 15.7 86 1.4 SSW 9 13 5 7 1021.6 1021.6 0.0
23/12:00am 18.5 18.4 16.1 86 1.4 S 11 15 6 8 1021.7 1021.7 0.0
 
Date/Time
EST
Temp
°C
App
Temp
°C
Dew
Point
°C
Rel
Hum
%
Delta-T
°C
Wind Press
QNH
hPa
Press
MSL
hPa
Rain since
9am
mm
Dir  Spd
km/h
Gust
km/h
Spd
kts
Gust
kts
22/11:30pm 18.7 19.0 15.9 84 1.7 SSE 9 11 5 6 1021.9 1021.9 0.0
22/11:00pm 19.1 20.0 16.1 83 1.8 SSE 6 9 3 5 1022.2 1022.2 0.0
22/10:30pm 19.6 19.9 16.1 80 2.1 SSE 9 15 5 8 1022.5 1022.5 0.0
22/10:00pm 20.2 20.6 16.2 78 2.4 SE 9 15 5 8 1022.6 1022.6 0.0
22/09:30pm 20.2 19.7 16.0 77 2.5 SE 13 20 7 11 1022.5 1022.5 0.0
22/09:00pm 20.5 19.2 15.9 75 2.7 SE 17 26 9 14 1022.5 1022.5 0.0
22/08:30pm 20.7 19.4 15.7 73 3.0 ESE 17 26 9 14 1022.4 1022.4 0.0
22/08:00pm 20.9 17.8 15.7 72 3.1 ESE 26 35 14 19 1022.3 1022.3 0.0
22/07:30pm 20.7 19.1 16.1 75 2.8 ESE 19 28 10 15 1022.0 1022.0 0.0
22/07:00pm 20.8 19.4 15.6 72 3.1 ESE 17 24 9 13 1022.0 1022.0 0.0
22/06:30pm 20.8 19.8 15.6 72 3.1 ESE 15 26 8 14 1021.8 1021.8 0.0
22/06:00pm 20.9 19.1 15.4 71 3.3 ESE 19 26 10 14 1021.6 1021.6 0.0
22/05:30pm 21.0 20.1 15.8 72 3.1 ESE 15 22 8 12 1021.3 1021.3 0.0
22/05:00pm 21.3 20.6 15.4 69 3.5 ESE 13 19 7 10 1021.1 1021.1 0.0
22/04:30pm 21.7 20.9 15.1 66 3.9 SE 13 19 7 10 1021.0 1021.0 0.0
22/04:00pm 21.9 20.1 14.5 63 4.3 ESE 17 22 9 12 1021.0 1021.0 0.0
22/03:30pm 22.1 20.6 15.2 65 4.1 ESE 17 20 9 11 1020.9 1020.9 0.0
22/03:00pm 22.4 20.2 14.3 60 4.7 ESE 19 26 10 14 1020.8 1020.8 0.0
22/02:30pm 22.5 20.1 13.8 58 5.1 ESE 19 26 10 14 1020.9 1020.9 0.0
22/02:00pm 22.9 20.8 13.7 56 5.3 ESE 17 24 9 13 1021.0 1021.0 0.0
22/01:30pm 22.7 20.1 13.2 55 5.5 ESE 19 24 10 13 1021.3 1021.3 0.0
22/01:00pm 22.5 19.6 12.4 52 5.7 ESE 19 26 10 14 1021.8 1021.8 0.0
22/12:30pm 23.3 21.0 12.9 52 6.0 SE 17 26 9 14 1022.2 1022.2 0.0
22/12:00pm 22.6 19.8 12.5 53 5.7 SSE 19 26 10 14 1022.7 1022.7 0.0
22/11:30am 22.0 19.6 12.8 56 5.2 SE 17 24 9 13 1023.2 1023.2 0.0
22/11:00am 21.2 18.8 12.6 58 4.8 SE 17 26 9 14 1023.5 1023.5 0.0
22/10:30am 20.7 17.8 12.4 59 4.7 SSE 19 28 10 15 1023.9 1023.9 0.0
22/10:00am 20.4 17.7 11.6 57 4.9 SE 17 26 9 14 1024.1 1024.1 0.0
22/09:30am 19.9 17.0 11.1 57 4.8 SSE 17 26 9 14 1024.3 1024.3 0.0
22/09:00am 18.8 16.6 10.9 60 4.3 SSE 13 20 7 11 1024.3 1024.3 0.0
22/08:30am 17.2 15.9 11.2 68 3.2 SSW 9 15 5 8 1024.0 1024.0 0.0
22/08:00am 16.0 14.7 11.2 73 2.6 W 9 11 5 6 1023.8 1023.8 0.0
22/07:30am 14.9 13.6 11.1 78 2.0 W 9 11 5 6 1023.6 1023.6 0.0
22/07:00am 13.9 12.7 11.6 86 1.2 W 9 13 5 7 1023.3 1023.3 0.0
22/06:30am 13.0 11.3 11.2 89 0.9 WNW 11 15 6 8 1023.1 1023.1 0.0
22/06:00am 13.1 12.3 11.7 91 0.7 WNW 7 9 4 5 1023.0 1023.0 0.0
22/05:30am 13.2 10.9 11.9 92 0.7 WNW 15 19 8 10 1022.4 1022.4 0.0
22/05:00am 13.2 11.2 11.6 90 0.8 W 13 17 7 9 1022.2 1022.2 0.0
22/04:30am 13.9 12.5 12.1 89 1.0 W 11 13 6 7 1022.0 1022.0 0.0
22/04:00am 14.3 12.7 12.9 91 0.8 W 13 17 7 9 1021.9 1021.9 0.0
22/03:30am 13.4 11.6 12.1 92 0.7 W 13 15 7 8 1021.9 1021.9 0.0
22/03:00am 13.3 11.8 11.9 91 0.7 W 11 13 6 7 1021.9 1021.9 0.0
22/02:30am 13.3 11.8 11.9 91 0.7 W 11 13 6 7 1022.0 1022.0 0.0
22/02:00am 13.2 12.0 11.6 90 0.8 W 9 11 5 6 1022.1 1022.1 0.0
22/01:30am 12.8 11.4 11.0 89 0.9 W 9 11 5 6 1022.3 1022.3 0.0
22/01:00am 13.6 12.4 11.5 87 1.1 W 9 11 5 6 1022.2 1022.2 0.0
22/12:30am 14.0 12.9 11.9 87 1.1 W 9 11 5 6 1022.6 1022.6 0.0
22/12:00am 14.5 13.9 12.2 86 1.2 W 7 13 4 7 1022.7 1022.7 0.0
 
Date/Time
EST
Temp
°C
App
Temp
°C
Dew
Point
°C
Rel
Hum
%
Delta-T
°C
Wind Press
QNH
hPa
Press
MSL
hPa
Rain since
9am
mm
Dir  Spd
km/h
Gust
km/h
Spd
kts
Gust
kts
21/11:30pm 14.7 13.0 12.6 87 1.1 W 13 19 7 10 1022.8 1022.8 0.0
21/11:00pm 14.7 12.7 12.6 87 1.1 WNW 15 19 8 10 1022.9 1022.9 0.0
21/10:30pm 14.9 13.3 12.9 88 1.1 WNW 13 17 7 9 1022.9 1022.9 0.0

Other Formats:

Comma delimited format used in spreadsheet applications
http://www.bom.gov.au/fwo/IDQ60801/IDQ60801.94373.axf

JavaScript Object Notation format (JSON) in row-major order
http://www.bom.gov.au/fwo/IDQ60801/IDQ60801.94373.json